createdAt,value
2018-09-04T00:02:24.238Z,98503.50
2018-09-04T00:04:52.701Z,98503.15
2018-09-04T00:07:22.913Z,98500.14
2018-09-04T00:09:52.052Z,98511.27
2018-09-04T00:12:21.397Z,98505.86
2018-09-04T00:14:49.878Z,98504.16
2018-09-04T00:17:18.374Z,98509.58
2018-09-04T00:19:46.794Z,98512.75
2018-09-04T00:22:15.230Z,98512.92
2018-09-04T00:24:43.942Z,98513.45
2018-09-04T00:27:12.420Z,98510.25
2018-09-04T00:29:40.862Z,98516.16
2018-09-04T00:32:09.380Z,98514.96
2018-09-04T00:34:37.886Z,98517.84
2018-09-04T00:37:06.362Z,98520.38
2018-09-04T00:39:34.816Z,98514.31
2018-09-04T00:42:03.333Z,98500.81
2018-09-04T00:44:31.770Z,98506.53
2018-09-04T00:47:00.213Z,98502.14
2018-09-04T00:49:28.717Z,98503.84
2018-09-04T00:51:57.277Z,98502.45
2018-09-04T00:54:25.777Z,98500.38
2018-09-04T00:56:54.258Z,98508.30
2018-09-04T00:59:22.763Z,98502.68
2018-09-04T01:01:51.230Z,98505.33
2018-09-04T01:04:19.737Z,98501.92
2018-09-04T01:06:48.194Z,98511.66
2018-09-04T01:09:20.245Z,98507.95
2018-09-04T01:11:48.766Z,98524.13
2018-09-04T01:14:17.226Z,98523.62
2018-09-04T01:16:46.387Z,98521.43
2018-09-04T01:19:15.194Z,98527.16
2018-09-04T01:21:44.057Z,98530.51
2018-09-04T01:24:12.901Z,98524.61
2018-09-04T01:26:41.362Z,98526.31
2018-09-04T01:29:09.892Z,98518.70
2018-09-04T01:31:38.334Z,98520.70
2018-09-04T01:34:06.858Z,98521.00
2018-09-04T01:36:35.449Z,98525.91
2018-09-04T01:39:04.518Z,98526.72
2018-09-04T01:41:32.938Z,98527.70
2018-09-04T01:44:01.453Z,98526.28
2018-09-04T01:46:29.965Z,98530.97
2018-09-04T01:48:58.366Z,98528.39
2018-09-04T01:51:26.782Z,98528.91
2018-09-04T01:53:55.293Z,98538.84
2018-09-04T01:56:23.761Z,98538.66
2018-09-04T01:58:52.169Z,98539.31
2018-09-04T02:01:20.657Z,98542.45
2018-09-04T02:03:49.079Z,98544.63
2018-09-04T02:06:17.581Z,98540.59
2018-09-04T02:08:47.058Z,98535.20
2018-09-04T02:11:15.605Z,98539.70
2018-09-04T02:13:44.313Z,98540.17
2018-09-04T02:16:12.842Z,98537.80
2018-09-04T02:18:41.298Z,98542.88
2018-09-04T02:21:09.793Z,98533.62
2018-09-04T02:23:38.281Z,98530.93
2018-09-04T02:26:07.146Z,98527.73
2018-09-04T02:28:35.713Z,98532.78
2018-09-04T02:31:04.295Z,98528.27
2018-09-04T02:33:32.690Z,98523.25
2018-09-04T02:36:01.224Z,98518.59
2018-09-04T02:38:29.741Z,98517.23
2018-09-04T02:40:58.187Z,98517.58
2018-09-04T02:43:26.613Z,98527.01
2018-09-04T02:45:55.082Z,98532.11
2018-09-04T02:48:23.485Z,98533.50
2018-09-04T02:50:52.031Z,98538.70
2018-09-04T02:53:20.452Z,98538.88
2018-09-04T02:55:48.961Z,98547.13
2018-09-04T02:58:17.503Z,98551.30
2018-09-04T03:00:46.430Z,98544.56
2018-09-04T03:03:14.913Z,98546.57
2018-09-04T03:05:43.554Z,98538.99
2018-09-04T03:08:11.962Z,98538.67
2018-09-04T03:10:40.457Z,98535.79
2018-09-04T03:13:08.909Z,98533.09
2018-09-04T03:15:37.429Z,98544.23
2018-09-04T03:18:05.965Z,98539.50
2018-09-04T03:20:34.383Z,98552.98
2018-09-04T03:23:02.989Z,98551.95
2018-09-04T03:25:31.445Z,98545.87
2018-09-04T03:27:59.913Z,98545.36
2018-09-04T03:30:28.409Z,98544.52
2018-09-04T03:32:56.862Z,98547.51
2018-09-04T03:35:25.366Z,98543.17
2018-09-04T03:37:53.842Z,98535.64
2018-09-04T03:40:22.545Z,98530.95
2018-09-04T03:42:51.061Z,98532.14
2018-09-04T03:45:19.491Z,98536.84
2018-09-04T03:47:47.973Z,98534.47
2018-09-04T03:50:16.465Z,98545.08
2018-09-04T03:52:45.709Z,98542.05
2018-09-04T03:55:14.191Z,98537.17
2018-09-04T03:57:42.630Z,98539.87
2018-09-04T04:00:11.397Z,98539.87
2018-09-04T04:02:40.099Z,98537.17
2018-09-04T04:05:08.590Z,98533.12
2018-09-04T04:07:37.055Z,98535.60
2018-09-04T04:10:05.757Z,98535.71
2018-09-04T04:12:34.240Z,98533.02
2018-09-04T04:15:02.804Z,98538.41
2018-09-04T04:17:31.442Z,98537.70
2018-09-04T04:19:59.897Z,98536.13
2018-09-04T04:22:28.382Z,98538.63
2018-09-04T04:24:56.916Z,98547.00
2018-09-04T04:27:25.334Z,98546.16
2018-09-04T04:29:53.748Z,98545.64
2018-09-04T04:32:22.186Z,98552.02
2018-09-04T04:34:50.651Z,98552.19
2018-09-04T04:37:19.240Z,98549.81
2018-09-04T04:39:47.799Z,98557.71
2018-09-04T04:42:16.354Z,98564.08
2018-09-04T04:44:45.084Z,98559.34
2018-09-04T04:47:13.599Z,98560.73
2018-09-04T04:49:42.077Z,98558.05
2018-09-04T04:52:10.570Z,98561.30
2018-09-04T04:54:39.034Z,98568.94
2018-09-04T04:57:07.552Z,98565.97
2018-09-04T04:59:36.015Z,98572.18
2018-09-04T05:02:04.550Z,98572.18
2018-09-04T05:04:33.046Z,98567.31
2018-09-04T05:07:01.589Z,98566.70
2018-09-04T05:09:30.005Z,98568.37
2018-09-04T05:11:58.510Z,98557.59
2018-09-04T05:14:26.991Z,98558.30
2018-09-04T05:16:55.602Z,98563.11
2018-09-04T05:19:24.125Z,98563.48
2018-09-04T05:21:52.701Z,98559.11
2018-09-04T05:24:21.116Z,98556.12
2018-09-04T05:26:49.601Z,98549.38
2018-09-04T05:29:18.311Z,98554.16
2018-09-04T05:31:52.286Z,98555.14
2018-09-04T05:34:22.810Z,98556.52
2018-09-04T05:36:51.543Z,98564.95
2018-09-04T05:39:19.906Z,98565.30
2018-09-04T05:41:48.374Z,98555.86
2018-09-04T05:44:16.897Z,98550.17
2018-09-04T05:46:47.610Z,98554.55
2018-09-04T05:49:19.583Z,98554.52
2018-09-04T05:51:48.094Z,98562.64
2018-09-04T05:54:16.676Z,98568.03
2018-09-04T05:56:45.353Z,98564.98
2018-09-04T05:59:13.794Z,98565.66
2018-09-04T06:01:42.273Z,98568.03
2018-09-04T06:04:10.778Z,98565.38
2018-09-04T06:06:39.229Z,98570.44
2018-09-04T06:09:07.774Z,98567.20
2018-09-04T06:11:36.182Z,98569.86
2018-09-04T06:14:04.761Z,98559.55
2018-09-04T06:16:33.250Z,98562.91
2018-09-04T06:19:01.782Z,98557.84
2018-09-04T06:21:30.209Z,98559.55
2018-09-04T06:23:58.705Z,98561.05
2018-09-04T06:26:27.169Z,98564.58
2018-09-04T06:28:55.732Z,98568.00
2018-09-04T06:31:24.151Z,98571.24
2018-09-04T06:33:52.779Z,98576.48
2018-09-04T06:36:21.394Z,98577.55
2018-09-04T06:38:49.997Z,98578.56
2018-09-04T06:41:18.670Z,98574.56
2018-09-04T06:43:47.219Z,98577.98
2018-09-04T06:46:15.653Z,98573.77
2018-09-04T06:48:45.707Z,98576.50
2018-09-04T06:51:14.158Z,98577.41
2018-09-04T06:53:43.725Z,98574.37
2018-09-04T06:56:12.166Z,98572.67
2018-09-04T06:58:40.624Z,98567.14
2018-09-04T07:01:09.126Z,98570.52
2018-09-04T07:03:38.029Z,98574.06
2018-09-04T07:06:06.881Z,98579.33
2018-09-04T07:08:35.270Z,98577.64
2018-09-04T07:11:03.813Z,98570.70
2018-09-04T07:13:32.313Z,98571.73
2018-09-04T07:16:00.969Z,98574.58
2018-09-04T07:18:29.398Z,98579.82
2018-09-04T07:20:57.881Z,98579.45
2018-09-04T07:23:26.497Z,98578.82
2018-09-04T07:25:55.090Z,98584.91
2018-09-04T07:28:23.533Z,98589.27
2018-09-04T07:30:52.270Z,98585.38
2018-09-04T07:33:20.758Z,98589.41
2018-09-04T07:35:49.298Z,98579.94
2018-09-04T07:38:17.698Z,98575.84
2018-09-04T07:40:46.502Z,98579.52
2018-09-04T07:43:14.921Z,98578.65
2018-09-04T07:45:43.395Z,98581.67
2018-09-04T07:48:12.097Z,98584.13
2018-09-04T07:50:40.598Z,98582.45
2018-09-04T07:53:09.039Z,98582.92
2018-09-04T07:55:37.570Z,98587.30
2018-09-04T07:58:06.041Z,98577.75
2018-09-04T08:00:34.565Z,98576.39
2018-09-04T08:03:03.053Z,98575.33
2018-09-04T08:05:31.565Z,98572.62
2018-09-04T08:08:00.094Z,98574.53
2018-09-04T08:10:32.278Z,98574.45
2018-09-04T08:13:00.725Z,98577.52
2018-09-04T08:15:29.210Z,98568.47
2018-09-04T08:17:57.883Z,98567.70
2018-09-04T08:20:26.928Z,98566.31
2018-09-04T08:22:56.129Z,98562.88
2018-09-04T08:25:25.502Z,98566.52
2018-09-04T08:27:54.030Z,98566.48
2018-09-04T08:30:22.788Z,98564.58
2018-09-04T08:32:51.259Z,98564.74
2018-09-04T08:35:19.694Z,98564.74
2018-09-04T08:37:48.237Z,98559.17
2018-09-04T08:40:16.645Z,98558.51
2018-09-04T08:42:45.545Z,98552.98
2018-09-04T08:45:14.057Z,98561.94
2018-09-04T08:47:42.590Z,98557.33
2018-09-04T08:50:11.161Z,98556.16
2018-09-04T08:52:39.607Z,98546.25
2018-09-04T08:55:08.085Z,98546.64
2018-09-04T08:57:36.590Z,98542.64
2018-09-04T09:00:05.089Z,98543.66
2018-09-04T09:02:33.535Z,98542.10
2018-09-04T09:05:02.085Z,98544.97
2018-09-04T09:07:30.627Z,98545.34
2018-09-04T09:09:59.066Z,98542.12
2018-09-04T09:12:27.575Z,98541.42
2018-09-04T09:14:56.072Z,98539.80
2018-09-04T09:17:24.555Z,98536.48
2018-09-04T09:22:20.902Z,98534.84
2018-09-04T09:24:49.314Z,98530.70
2018-09-04T09:27:17.968Z,98528.31
2018-09-04T09:29:46.768Z,98523.54
2018-09-04T09:32:15.346Z,98526.16
2018-09-04T09:34:43.933Z,98528.49
2018-09-04T09:37:12.354Z,98525.44
2018-09-04T09:39:40.818Z,98523.57
2018-09-04T09:42:12.373Z,98522.07
2018-09-04T09:44:41.857Z,98522.70
2018-09-04T09:47:10.294Z,98517.28
2018-09-04T09:49:38.762Z,98518.98
2018-09-04T09:52:07.249Z,98524.30
2018-09-04T09:54:35.694Z,98517.56
2018-09-04T09:57:04.283Z,98521.44
2018-09-04T09:59:32.859Z,98519.52
2018-09-04T10:02:06.643Z,98522.95
2018-09-04T10:04:35.097Z,98518.22
2018-09-04T10:07:03.609Z,98521.55
2018-09-04T10:09:32.039Z,98521.23
2018-09-04T10:12:00.557Z,98517.55
2018-09-04T10:14:29.029Z,98525.98
2018-09-04T10:16:57.522Z,98520.47
2018-09-04T10:19:25.957Z,98521.58
2018-09-04T10:21:54.509Z,98520.12
2018-09-04T10:24:23.071Z,98516.08
2018-09-04T10:26:51.533Z,98523.55
2018-09-04T10:29:19.994Z,98513.47
2018-09-04T10:31:48.454Z,98512.31
2018-09-04T10:34:17.137Z,98507.64
2018-09-04T10:36:46.722Z,98503.91
2018-09-04T10:39:20.514Z,98508.33
2018-09-04T10:41:48.962Z,98504.34
2018-09-04T10:44:17.512Z,98494.44
2018-09-04T10:46:46.174Z,98493.34
2018-09-04T10:49:14.754Z,98493.71
2018-09-04T10:51:43.199Z,98489.03
2018-09-04T10:54:11.713Z,98483.92
2018-09-04T10:56:40.127Z,98487.62
2018-09-04T10:59:08.737Z,98490.09
2018-09-04T11:01:37.208Z,98483.64
2018-09-04T11:04:05.745Z,98494.02
2018-09-04T11:06:34.264Z,98486.52
2018-09-04T11:09:02.864Z,98483.48
2018-09-04T11:11:31.326Z,98483.83
2018-09-04T11:13:59.821Z,98477.59
2018-09-04T11:16:28.313Z,98478.50
2018-09-04T11:18:56.807Z,98480.14
2018-09-04T11:21:25.367Z,98488.41
2018-09-04T11:23:53.850Z,98481.70
2018-09-04T11:26:22.421Z,98479.34
2018-09-04T11:28:54.029Z,98476.61
2018-09-04T11:31:22.510Z,98474.58
2018-09-04T11:33:51.121Z,98481.64
2018-09-04T11:36:19.632Z,98477.66
2018-09-04T11:38:48.138Z,98473.23
2018-09-04T11:41:16.575Z,98465.28
2018-09-04T11:43:45.270Z,98463.23
2018-09-04T11:46:13.746Z,98463.58
2018-09-04T11:48:42.254Z,98466.07
2018-09-04T11:51:12.019Z,98468.20
2018-09-04T11:53:40.482Z,98458.12
2018-09-04T11:56:08.896Z,98474.09
2018-09-04T11:58:37.419Z,98463.30
2018-09-04T12:01:14.748Z,98472.19
2018-09-04T12:03:43.226Z,98471.63
2018-09-04T12:06:11.633Z,98467.08
2018-09-04T12:08:40.150Z,98463.31
2018-09-04T12:11:08.675Z,98462.09
2018-09-04T12:13:37.101Z,98460.27
2018-09-04T12:16:05.687Z,98461.08
2018-09-04T12:18:34.159Z,98461.66
2018-09-04T12:21:06.652Z,98459.89
2018-09-04T12:23:34.923Z,98464.11
2018-09-04T12:26:04.793Z,98462.23
2018-09-04T12:28:33.206Z,98468.98
2018-09-04T12:31:01.998Z,98469.86
2018-09-04T12:33:30.463Z,98463.83
2018-09-04T12:35:59.122Z,98462.30
2018-09-04T12:38:36.522Z,98466.70
2018-09-04T12:41:10.320Z,98458.16
2018-09-04T12:43:38.801Z,98455.38
2018-09-04T12:46:07.625Z,98454.34
2018-09-04T12:48:36.195Z,98461.59
2018-09-04T12:51:04.789Z,98463.00
2018-09-04T12:53:34.074Z,98462.69
2018-09-04T12:56:02.640Z,98467.12
2018-09-04T12:58:31.081Z,98463.23
2018-09-04T13:00:59.841Z,98463.50
2018-09-04T13:03:29.339Z,98461.01
2018-09-04T13:05:57.916Z,98458.56
2018-09-04T13:08:27.970Z,98453.66
2018-09-04T13:10:56.465Z,98455.25
2018-09-04T13:13:25.433Z,98459.56
2018-09-04T13:15:55.600Z,98458.92
2018-09-04T13:18:24.381Z,98459.27
2018-09-04T13:20:52.877Z,98453.34
2018-09-04T13:23:21.303Z,98454.43
2018-09-04T13:25:49.830Z,98455.30
2018-09-04T13:28:18.338Z,98449.58
2018-09-04T13:30:47.427Z,98442.34
2018-09-04T13:33:15.825Z,98445.55
2018-09-04T13:35:45.025Z,98441.75
2018-09-04T13:38:13.519Z,98441.58
2018-09-04T13:40:42.025Z,98442.30
2018-09-04T13:43:10.550Z,98449.62
2018-09-04T13:45:39.001Z,98434.77
2018-09-04T13:48:07.439Z,98423.36
2018-09-04T13:50:36.014Z,98431.84
2018-09-04T13:53:04.829Z,98419.73
2018-09-04T13:55:33.320Z,98417.34
2018-09-04T13:58:01.802Z,98417.41
2018-09-04T14:00:30.338Z,98418.16
2018-09-04T14:02:58.863Z,98411.55
2018-09-04T14:05:27.353Z,98408.54
2018-09-04T14:07:55.849Z,98407.42
2018-09-04T14:10:24.386Z,98410.06
2018-09-04T14:12:52.862Z,98409.72
2018-09-04T14:15:21.435Z,98418.30
2018-09-04T14:17:49.841Z,98427.02
2018-09-04T14:20:18.334Z,98422.97
2018-09-04T14:22:47.750Z,98412.45
2018-09-04T14:25:16.198Z,98419.68
2018-09-04T14:27:45.092Z,98426.40
2018-09-04T14:32:41.058Z,98420.56
2018-09-04T14:35:10.049Z,98414.63
2018-09-04T14:37:38.527Z,98422.05
2018-09-04T14:40:07.618Z,98419.79
2018-09-04T14:42:36.119Z,98423.39
2018-09-04T14:45:04.834Z,98421.68
2018-09-04T14:47:33.341Z,98420.11
2018-09-04T14:50:01.834Z,98425.73
2018-09-04T14:52:30.331Z,98422.87
2018-09-04T14:54:58.795Z,98414.00
2018-09-04T14:57:27.327Z,98416.27
2018-09-04T14:59:55.833Z,98406.88
2018-09-04T15:02:24.294Z,98418.23
2018-09-04T15:04:52.730Z,98423.26
2018-09-04T15:07:21.305Z,98418.67
2018-09-04T15:09:49.821Z,98421.84
2018-09-04T15:12:18.328Z,98429.23
2018-09-04T15:14:47.769Z,98423.71
2018-09-04T15:17:16.290Z,98420.74
2018-09-04T15:19:44.949Z,98417.05
2018-09-04T15:22:13.487Z,98420.88
2018-09-04T15:24:41.917Z,98417.52
2018-09-04T15:27:12.874Z,98418.48
2018-09-04T15:29:41.442Z,98422.73
2018-09-04T15:32:10.041Z,98416.23
2018-09-04T15:34:38.499Z,98420.19
2018-09-04T15:37:07.044Z,98420.91
2018-09-04T15:39:35.457Z,98422.44
2018-09-04T15:42:04.062Z,98417.08
2018-09-04T15:44:32.590Z,98420.70
2018-09-04T15:47:01.080Z,98422.09
2018-09-04T15:49:34.926Z,98420.59
2018-09-04T15:52:03.869Z,98420.70
2018-09-04T15:54:32.310Z,98420.83
2018-09-04T15:57:00.915Z,98423.08
2018-09-04T15:59:29.391Z,98424.67
2018-09-04T16:01:58.009Z,98416.92
2018-09-04T16:04:26.437Z,98422.77
2018-09-04T16:06:54.970Z,98416.38
2018-09-04T16:09:23.452Z,98414.22
2018-09-04T16:11:51.876Z,98414.55
2018-09-04T16:14:20.376Z,98416.53
2018-09-04T16:16:48.884Z,98417.02
2018-09-04T16:19:17.379Z,98413.57
2018-09-04T16:21:46.249Z,98414.08
2018-09-04T16:24:14.697Z,98412.07
2018-09-04T16:26:43.232Z,98414.47
2018-09-04T16:29:11.740Z,98400.41
2018-09-04T16:31:40.437Z,98410.45
2018-09-04T16:34:08.993Z,98410.27
2018-09-04T16:36:37.506Z,98407.17
2018-09-04T16:39:06.533Z,98409.01
2018-09-04T16:41:35.066Z,98408.31
2018-09-04T16:44:04.286Z,98404.16
2018-09-04T16:46:32.694Z,98403.77
2018-09-04T16:49:01.162Z,98401.14
2018-09-04T16:51:29.606Z,98402.14
2018-09-04T16:53:58.129Z,98403.78
2018-09-04T16:56:26.579Z,98401.73
2018-09-04T16:58:55.135Z,98402.26
2018-09-04T17:01:23.531Z,98409.29
2018-09-04T17:03:52.100Z,98406.90
2018-09-04T17:06:20.520Z,98407.48
2018-09-04T17:08:49.062Z,98402.19
2018-09-04T17:11:17.729Z,98409.39
2018-09-04T17:13:46.602Z,98408.45
2018-09-04T17:16:15.061Z,98410.22
2018-09-04T17:18:43.952Z,98414.45
2018-09-04T17:21:12.529Z,98410.69
2018-09-04T17:23:41.029Z,98414.16
2018-09-04T17:26:09.479Z,98408.81
2018-09-04T17:28:38.037Z,98417.82
2018-09-04T17:31:06.518Z,98419.81
2018-09-04T17:33:35.017Z,98422.07
2018-09-04T17:36:03.584Z,98427.34
2018-09-04T17:38:32.002Z,98428.69
2018-09-04T17:41:00.493Z,98426.11
2018-09-04T17:43:29.010Z,98424.89
2018-09-04T17:45:57.641Z,98422.17
2018-09-04T17:48:26.175Z,98433.84
2018-09-04T17:50:54.697Z,98429.97
2018-09-04T17:53:23.086Z,98435.87
2018-09-04T17:55:51.585Z,98432.81
2018-09-04T17:58:20.266Z,98438.55
2018-09-04T18:00:48.822Z,98442.09
2018-09-04T18:03:17.329Z,98441.09
2018-09-04T18:05:46.513Z,98444.95
2018-09-04T18:08:15.009Z,98444.69
2018-09-04T18:10:43.525Z,98441.85
2018-09-04T18:13:12.138Z,98440.49
2018-09-04T18:15:40.576Z,98445.10
2018-09-04T18:18:09.064Z,98446.59
2018-09-04T18:20:37.544Z,98447.90
2018-09-04T18:23:06.185Z,98453.14
2018-09-04T18:25:34.690Z,98456.03
2018-09-04T18:28:03.232Z,98465.59
2018-09-04T18:30:31.673Z,98463.12
2018-09-04T18:33:00.129Z,98469.39
2018-09-04T18:35:28.676Z,98467.40
2018-09-04T18:37:57.094Z,98472.80
2018-09-04T18:40:25.639Z,98470.48
2018-09-04T18:42:54.059Z,98470.22
2018-09-04T18:45:33.807Z,98471.23
2018-09-04T18:48:02.293Z,98466.59
2018-09-04T18:50:40.645Z,98469.51
2018-09-04T18:53:09.107Z,98474.68
2018-09-04T18:55:37.602Z,98474.29
2018-09-04T18:58:06.553Z,98479.54
2018-09-04T19:00:35.031Z,98483.09
2018-09-04T19:03:03.682Z,98483.75
2018-09-04T19:05:32.274Z,98490.41
2018-09-04T19:08:01.164Z,98493.17
2018-09-04T19:10:30.039Z,98487.64
2018-09-04T19:12:58.505Z,98496.58
2018-09-04T19:15:27.439Z,98494.37
2018-09-04T19:17:55.972Z,98496.50
2018-09-04T19:20:24.569Z,98494.00
2018-09-04T19:22:53.312Z,98496.02
2018-09-04T19:25:21.914Z,98500.55
2018-09-04T19:27:50.425Z,98504.27
2018-09-04T19:30:18.922Z,98505.91
2018-09-04T19:32:47.506Z,98502.95
2018-09-04T19:35:16.251Z,98507.08
2018-09-04T19:37:45.210Z,98508.93
2018-09-04T19:40:13.726Z,98509.94
2018-09-04T19:42:42.798Z,98513.55
2018-09-04T19:45:11.445Z,98514.05
2018-09-04T19:47:40.334Z,98516.97
2018-09-04T19:50:10.122Z,98512.92
2018-09-04T19:52:38.787Z,98512.23
2018-09-04T19:55:08.937Z,98519.20
2018-09-04T19:57:37.418Z,98523.78
2018-09-04T20:00:06.677Z,98523.34
2018-09-04T20:02:35.250Z,98529.52
2018-09-04T20:05:04.097Z,98534.53
2018-09-04T20:07:32.623Z,98536.92
2018-09-04T20:10:01.239Z,98545.09
2018-09-04T20:12:29.708Z,98542.05
2018-09-04T20:14:58.183Z,98544.56
2018-09-04T20:17:26.758Z,98544.78
2018-09-04T20:19:55.251Z,98544.92
2018-09-04T20:22:23.771Z,98548.53
2018-09-04T20:24:52.287Z,98544.02
2018-09-04T20:27:20.744Z,98543.04
2018-09-04T20:29:49.203Z,98540.56
2018-09-04T20:32:17.714Z,98538.02
2018-09-04T20:34:46.542Z,98542.63
2018-09-04T20:37:15.123Z,98547.63
2018-09-04T20:39:43.646Z,98550.22
2018-09-04T20:42:12.154Z,98549.19
2018-09-04T20:44:40.758Z,98549.55
2018-09-04T20:47:09.296Z,98544.53
2018-09-04T20:49:37.914Z,98543.02
2018-09-04T20:52:06.660Z,98549.30
2018-09-04T20:54:35.178Z,98550.98
2018-09-04T20:57:37.282Z,98552.97
2018-09-04T21:00:18.653Z,98539.76
2018-09-04T21:02:59.598Z,98541.11
2018-09-04T21:05:39.461Z,98539.80
2018-09-04T21:08:18.412Z,98542.22
2018-09-04T21:10:48.144Z,98542.06
2018-09-04T21:13:16.601Z,98539.71
2018-09-04T21:15:45.486Z,98539.23
2018-09-04T21:18:13.937Z,98536.88
2018-09-04T21:20:42.485Z,98536.71
2018-09-04T21:23:11.250Z,98534.20
2018-09-04T21:25:39.777Z,98540.24
2018-09-04T21:28:08.177Z,98539.92
2018-09-04T21:30:36.691Z,98539.92
2018-09-04T21:33:05.377Z,98539.59
2018-09-04T21:35:33.904Z,98531.83
2018-09-04T21:38:02.369Z,98532.69
2018-09-04T21:40:30.801Z,98533.21
2018-09-04T21:42:59.258Z,98540.15
2018-09-04T21:45:28.806Z,98533.90
2018-09-04T21:47:57.437Z,98533.56
2018-09-04T21:50:25.915Z,98537.28
2018-09-04T21:52:54.350Z,98530.84
2018-09-04T21:55:22.818Z,98533.40
2018-09-04T21:57:51.317Z,98530.86
2018-09-04T22:00:26.433Z,98532.53
2018-09-04T22:02:55.841Z,98527.48
2018-09-04T22:05:25.284Z,98535.25
2018-09-04T22:07:54.617Z,98535.75
2018-09-04T22:10:23.225Z,98533.39
2018-09-04T22:12:51.703Z,98534.22
2018-09-04T22:15:20.298Z,98537.11
2018-09-04T22:17:48.972Z,98536.60
2018-09-04T22:20:17.397Z,98535.73
2018-09-04T22:22:46.622Z,98540.64
2018-09-04T22:25:15.099Z,98533.38
2018-09-04T22:27:43.511Z,98532.20
2018-09-04T22:30:12.029Z,98530.33
2018-09-04T22:32:40.606Z,98535.92
2018-09-04T22:35:09.102Z,98536.23
2018-09-04T22:37:37.553Z,98537.91
2018-09-04T22:40:06.888Z,98533.17
2018-09-04T22:42:35.413Z,98535.22
2018-09-04T22:45:03.932Z,98530.44
2018-09-04T22:47:32.413Z,98534.80
2018-09-04T22:50:06.359Z,98529.75
2018-09-04T22:52:35.168Z,98539.17
2018-09-04T22:55:06.889Z,98538.67
2018-09-04T22:57:35.391Z,98539.16
2018-09-04T23:00:03.949Z,98538.44
2018-09-04T23:02:32.429Z,98534.75
2018-09-04T23:05:00.893Z,98536.13
2018-09-04T23:07:29.462Z,98535.61
2018-09-04T23:09:58.026Z,98540.14
2018-09-04T23:12:26.553Z,98548.25
2018-09-04T23:14:55.013Z,98542.82
2018-09-04T23:17:23.526Z,98545.16
2018-09-04T23:19:51.961Z,98542.11
2018-09-04T23:22:20.489Z,98537.91
2018-09-04T23:24:48.970Z,98539.81
2018-09-04T23:27:17.441Z,98540.19
2018-09-04T23:29:46.365Z,98544.13
2018-09-04T23:32:14.822Z,98546.30
2018-09-04T23:34:43.257Z,98540.03
2018-09-04T23:37:11.778Z,98538.66
2018-09-04T23:39:40.222Z,98540.32
2018-09-04T23:42:08.737Z,98548.58
2018-09-04T23:44:37.218Z,98550.56
2018-09-04T23:47:06.002Z,98553.20
2018-09-04T23:49:34.453Z,98554.34
2018-09-04T23:52:02.977Z,98551.09
2018-09-04T23:54:31.473Z,98551.71
2018-09-04T23:56:59.966Z,98549.30
2018-09-04T23:59:28.381Z,98546.61
